Salina, Kansas
Current Conditions -  °F | °C
As of 10:53 AM on Thursday 23 Oct 2014 (Local Time) from KSLN Reporting Station
Few Clouds Few Clouds  
Wind Chill: 68°   Ceiling: Unl
Heat Index: 68°   Visibility: 9mi
Dew Point: 60°   Wind: 7mph
Humidity: 76%   Direction: 220°SW
Pressure: 30.11"   Gusts: NA
Location:  38.84°N, 97.61°W
Report Text: KSLN 231553Z 22006KT 9SM FEW036 20/16 A3011 RMK AO2 SLP188 T02000156
Loading
Personal Weather Stations






























Interactive Weather Map
Tropical Storm Tracking
New forecast layout! Learn more

10-Day Weather Forecast

Advertisements
Track Severe Weather on mobile